Terminal Aerodrome Forecast
Issued by NWS Mobile, AL

Home | Current Version | Previous Version | Text Only | Print | Product List | Glossary On
Versions: 1 2 3 4 5 6 7 8 9 10 11 12 13 14 15 16 17 18 19 20
000
FTUS44 KMOB 191700
TAFPNS
TAF
KPNS 191740Z 1918/2018 36015G23KT P6SM FEW030 FEW250
     FM192300 36007KT P6SM SCT250
     FM201500 03008KT P6SM FEW040 SCT250=

USA.gov is the U.S. government's official web portal to all federal, state and local government web resources and services.